sensor_id;sensor_type;location;lat;lon;timestamp;pressure;altitude;pressure_sealevel;temperature;humidity
7660;BME280;3872;47.902;8.162;2024-03-29T00:00:39;90284.81;;;4.63;74.93
7660;BME280;3872;47.902;8.162;2024-03-29T00:03:05;90272.81;;;4.84;73.31
7660;BME280;3872;47.902;8.162;2024-03-29T00:05:31;90280.13;;;4.96;74.20
7660;BME280;3872;47.902;8.162;2024-03-29T00:07:57;90286.28;;;4.55;74.84
7660;BME280;3872;47.902;8.162;2024-03-29T00:10:23;90267.63;;;4.40;78.68
7660;BME280;3872;47.902;8.162;2024-03-29T00:12:50;90253.38;;;4.37;80.10
7660;BME280;3872;47.902;8.162;2024-03-29T00:15:15;90252.59;;;4.81;77.52
7660;BME280;3872;47.902;8.162;2024-03-29T00:17:41;90249.94;;;5.34;70.70
7660;BME280;3872;47.902;8.162;2024-03-29T00:20:07;90220.59;;;5.68;68.61
7660;BME280;3872;47.902;8.162;2024-03-29T00:22:33;90223.91;;;5.51;69.28
7660;BME280;3872;47.902;8.162;2024-03-29T00:24:59;90207.38;;;5.65;67.68
7660;BME280;3872;47.902;8.162;2024-03-29T00:27:25;90209.56;;;4.39;79.19
7660;BME280;3872;47.902;8.162;2024-03-29T00:29:52;90202.72;;;5.05;72.40
7660;BME280;3872;47.902;8.162;2024-03-29T00:32:18;90199.41;;;4.82;77.06
7660;BME280;3872;47.902;8.162;2024-03-29T00:34:44;90192.53;;;5.26;70.05
7660;BME280;3872;47.902;8.162;2024-03-29T00:37:09;90187.56;;;4.45;78.46
7660;BME280;3872;47.902;8.162;2024-03-29T00:39:35;90170.00;;;5.30;71.28
7660;BME280;3872;47.902;8.162;2024-03-29T00:42:01;90169.97;;;5.21;72.01
7660;BME280;3872;47.902;8.162;2024-03-29T00:44:26;90167.19;;;5.26;73.06
7660;BME280;3872;47.902;8.162;2024-03-29T00:46:53;90175.63;;;5.15;70.96
7660;BME280;3872;47.902;8.162;2024-03-29T00:49:19;90170.72;;;5.22;70.58
7660;BME280;3872;47.902;8.162;2024-03-29T00:51:44;90184.56;;;4.91;76.75
7660;BME280;3872;47.902;8.162;2024-03-29T00:54:10;90179.72;;;5.64;70.31
7660;BME280;3872;47.902;8.162;2024-03-29T00:56:36;90180.16;;;4.69;78.92
7660;BME280;3872;47.902;8.162;2024-03-29T00:59:01;90199.97;;;5.49;73.69
7660;BME280;3872;47.902;8.162;2024-03-29T01:01:27;90189.66;;;5.44;71.99
7660;BME280;3872;47.902;8.162;2024-03-29T01:03:54;90194.88;;;5.44;72.17
7660;BME280;3872;47.902;8.162;2024-03-29T01:06:20;90215.78;;;5.13;76.93
7660;BME280;3872;47.902;8.162;2024-03-29T01:08:47;90194.47;;;5.60;72.88
7660;BME280;3872;47.902;8.162;2024-03-29T01:11:12;90205.63;;;5.43;71.75
7660;BME280;3872;47.902;8.162;2024-03-29T01:13:38;90209.25;;;5.33;73.99
7660;BME280;3872;47.902;8.162;2024-03-29T01:16:04;90214.31;;;5.86;70.03
7660;BME280;3872;47.902;8.162;2024-03-29T01:18:30;90202.16;;;5.65;69.82
7660;BME280;3872;47.902;8.162;2024-03-29T01:20:57;90206.00;;;5.76;69.52
7660;BME280;3872;47.902;8.162;2024-03-29T01:23:22;90211.66;;;5.61;71.44
7660;BME280;3872;47.902;8.162;2024-03-29T01:25:48;90209.69;;;4.87;74.85
7660;BME280;3872;47.902;8.162;2024-03-29T01:28:14;90203.28;;;5.98;69.20
7660;BME280;3872;47.902;8.162;2024-03-29T01:30:39;90207.28;;;6.13;67.71
7660;BME280;3872;47.902;8.162;2024-03-29T01:33:05;90201.72;;;5.80;67.85
7660;BME280;3872;47.902;8.162;2024-03-29T01:35:30;90214.69;;;4.75;78.21
7660;BME280;3872;47.902;8.162;2024-03-29T01:37:57;90188.91;;;5.04;76.71
7660;BME280;3872;47.902;8.162;2024-03-29T01:40:23;90191.50;;;4.96;78.68
7660;BME280;3872;47.902;8.162;2024-03-29T01:42:53;90175.47;;;5.20;79.27
7660;BME280;3872;47.902;8.162;2024-03-29T01:45:18;90196.28;;;3.82;93.19
7660;BME280;3872;47.902;8.162;2024-03-29T01:47:45;90184.94;;;5.07;81.84
7660;BME280;3872;47.902;8.162;2024-03-29T01:50:12;90172.44;;;4.87;80.27
7660;BME280;3872;47.902;8.162;2024-03-29T01:52:39;90184.53;;;4.29;86.00
7660;BME280;3872;47.902;8.162;2024-03-29T01:55:07;90196.00;;;4.06;88.17
7660;BME280;3872;47.902;8.162;2024-03-29T01:57:34;90185.09;;;4.71;83.72
7660;BME280;3872;47.902;8.162;2024-03-29T02:00:01;90194.53;;;4.36;85.64
7660;BME280;3872;47.902;8.162;2024-03-29T02:02:32;90196.00;;;4.06;92.42
7660;BME280;3872;47.902;8.162;2024-03-29T02:04:59;90192.16;;;5.58;74.87
7660;BME280;3872;47.902;8.162;2024-03-29T02:07:25;90190.75;;;5.52;73.69
7660;BME280;3872;47.902;8.162;2024-03-29T02:09:51;90188.84;;;5.18;73.81
7660;BME280;3872;47.902;8.162;2024-03-29T02:12:19;90200.09;;;4.96;79.83
7660;BME280;3872;47.902;8.162;2024-03-29T02:14:46;90208.84;;;5.00;77.40
7660;BME280;3872;47.902;8.162;2024-03-29T02:17:11;90165.81;;;5.20;75.27
7660;BME280;3872;47.902;8.162;2024-03-29T02:19:39;90183.63;;;4.34;87.98
7660;BME280;3872;47.902;8.162;2024-03-29T02:22:07;90177.31;;;4.80;80.91
7660;BME280;3872;47.902;8.162;2024-03-29T02:24:38;90194.63;;;3.86;91.66
7660;BME280;3872;47.902;8.162;2024-03-29T02:27:05;90167.91;;;5.01;81.57
7660;BME280;3872;47.902;8.162;2024-03-29T02:29:32;90161.28;;;5.51;73.16
7660;BME280;3872;47.902;8.162;2024-03-29T02:31:58;90170.66;;;5.04;77.48
7660;BME280;3872;47.902;8.162;2024-03-29T02:34:25;90170.72;;;5.22;78.46
7660;BME280;3872;47.902;8.162;2024-03-29T02:36:52;90188.06;;;5.18;76.85
7660;BME280;3872;47.902;8.162;2024-03-29T02:39:19;90183.50;;;5.32;75.60
7660;BME280;3872;47.902;8.162;2024-03-29T02:41:46;90179.88;;;5.76;73.23
7660;BME280;3872;47.902;8.162;2024-03-29T02:44:13;90228.59;;;4.04;89.66
7660;BME280;3872;47.902;8.162;2024-03-29T02:46:41;90224.44;;;4.92;87.12
7660;BME280;3872;47.902;8.162;2024-03-29T02:49:08;90198.84;;;5.99;75.04
7660;BME280;3872;47.902;8.162;2024-03-29T02:51:34;90191.03;;;5.42;76.99
7660;BME280;3872;47.902;8.162;2024-03-29T02:54:01;90186.63;;;5.51;83.31
7660;BME280;3872;47.902;8.162;2024-03-29T02:56:26;90165.50;;;5.87;75.89
7660;BME280;3872;47.902;8.162;2024-03-29T02:58:55;90160.00;;;6.23;72.64
7660;BME280;3872;47.902;8.162;2024-03-29T03:01:20;90151.94;;;5.76;74.84
7660;BME280;3872;47.902;8.162;2024-03-29T03:03:47;90163.47;;;4.40;93.95
7660;BME280;3872;47.902;8.162;2024-03-29T03:06:13;90161.91;;;5.40;89.52
7660;BME280;3872;47.902;8.162;2024-03-29T03:08:39;90163.53;;;6.10;79.80
7660;BME280;3872;47.902;8.162;2024-03-29T03:11:20;90170.41;;;6.40;74.09
7660;BME280;3872;47.902;8.162;2024-03-29T03:13:46;90152.94;;;5.89;79.54
7660;BME280;3872;47.902;8.162;2024-03-29T03:16:14;90161.53;;;6.15;75.10
7660;BME280;3872;47.902;8.162;2024-03-29T03:18:40;90170.59;;;6.18;76.35
7660;BME280;3872;47.902;8.162;2024-03-29T03:21:07;90166.88;;;6.27;72.82
7660;BME280;3872;47.902;8.162;2024-03-29T03:23:33;90168.59;;;6.15;73.15
7660;BME280;3872;47.902;8.162;2024-03-29T03:26:02;90169.91;;;5.61;77.69
7660;BME280;3872;47.902;8.162;2024-03-29T03:28:29;90169.97;;;6.12;73.15
7660;BME280;3872;47.902;8.162;2024-03-29T03:30:55;90178.75;;;6.16;72.83
7660;BME280;3872;47.902;8.162;2024-03-29T03:33:23;90178.41;;;6.35;72.55
7660;BME280;3872;47.902;8.162;2024-03-29T03:35:50;90175.63;;;6.49;70.28
7660;BME280;3872;47.902;8.162;2024-03-29T03:38:16;90184.63;;;6.86;67.69
7660;BME280;3872;47.902;8.162;2024-03-29T03:40:43;90177.03;;;7.10;65.65
7660;BME280;3872;47.902;8.162;2024-03-29T03:43:08;90194.50;;;7.27;65.92
7660;BME280;3872;47.902;8.162;2024-03-29T03:45:35;90208.25;;;7.06;66.56
7660;BME280;3872;47.902;8.162;2024-03-29T03:48:02;90201.63;;;6.45;70.43
7660;BME280;3872;47.902;8.162;2024-03-29T03:50:30;90190.94;;;6.76;69.32
7660;BME280;3872;47.902;8.162;2024-03-29T03:52:56;90207.50;;;5.11;87.22
7660;BME280;3872;47.902;8.162;2024-03-29T03:55:23;90198.25;;;6.45;76.43
7660;BME280;3872;47.902;8.162;2024-03-29T03:57:48;90179.34;;;5.96;78.26
7660;BME280;3872;47.902;8.162;2024-03-29T04:00:15;90198.41;;;5.00;89.69
7660;BME280;3872;47.902;8.162;2024-03-29T04:02:41;90182.25;;;5.29;91.56
7660;BME280;3872;47.902;8.162;2024-03-29T04:05:08;90174.19;;;6.77;77.00
7660;BME280;3872;47.902;8.162;2024-03-29T04:07:35;90166.81;;;6.71;73.82
7660;BME280;3872;47.902;8.162;2024-03-29T04:10:01;90154.88;;;6.52;75.49
7660;BME280;3872;47.902;8.162;2024-03-29T04:12:27;90161.97;;;6.26;75.05
7660;BME280;3872;47.902;8.162;2024-03-29T04:14:54;90160.28;;;6.30;75.67
7660;BME280;3872;47.902;8.162;2024-03-29T04:17:22;90161.22;;;6.17;78.31
7660;BME280;3872;47.902;8.162;2024-03-29T04:19:49;90162.09;;;5.86;79.87
7660;BME280;3872;47.902;8.162;2024-03-29T04:22:14;90157.63;;;6.64;73.02
7660;BME280;3872;47.902;8.162;2024-03-29T04:24:42;90169.63;;;6.65;73.07
7660;BME280;3872;47.902;8.162;2024-03-29T04:27:09;90174.16;;;6.86;71.40
7660;BME280;3872;47.902;8.162;2024-03-29T04:29:34;90186.50;;;6.77;72.12
7660;BME280;3872;47.902;8.162;2024-03-29T04:32:01;90190.69;;;6.52;73.74
7660;BME280;3872;47.902;8.162;2024-03-29T04:34:26;90185.69;;;5.47;85.98
7660;BME280;3872;47.902;8.162;2024-03-29T04:36:53;90179.38;;;5.39;89.26
7660;BME280;3872;47.902;8.162;2024-03-29T04:39:19;90197.88;;;5.21;93.80
7660;BME280;3872;47.902;8.162;2024-03-29T04:41:47;90200.22;;;6.56;82.90
7660;BME280;3872;47.902;8.162;2024-03-29T04:44:23;90204.97;;;6.63;79.58
7660;BME280;3872;47.902;8.162;2024-03-29T04:46:50;90204.16;;;5.85;85.50
7660;BME280;3872;47.902;8.162;2024-03-29T04:49:18;90198.69;;;6.21;92.97
7660;BME280;3872;47.902;8.162;2024-03-29T04:51:48;90219.16;;;7.17;80.32
7660;BME280;3872;47.902;8.162;2024-03-29T04:54:14;90212.50;;;6.47;85.49
7660;BME280;3872;47.902;8.162;2024-03-29T04:56:41;90204.91;;;6.97;82.17
7660;BME280;3872;47.902;8.162;2024-03-29T04:59:09;90207.00;;;7.13;78.87
7660;BME280;3872;47.902;8.162;2024-03-29T05:01:36;90218.50;;;6.74;82.89
7660;BME280;3872;47.902;8.162;2024-03-29T05:04:02;90212.31;;;6.95;81.64
7660;BME280;3872;47.902;8.162;2024-03-29T05:06:29;90216.66;;;7.29;79.74
7660;BME280;3872;47.902;8.162;2024-03-29T05:08:55;90203.09;;;7.65;74.83
7660;BME280;3872;47.902;8.162;2024-03-29T05:11:22;90211.66;;;6.98;79.37
7660;BME280;3872;47.902;8.162;2024-03-29T05:13:49;90212.16;;;7.38;77.42
7660;BME280;3872;47.902;8.162;2024-03-29T05:16:17;90211.25;;;6.79;82.83
7660;BME280;3872;47.902;8.162;2024-03-29T05:18:43;90217.00;;;6.38;86.07
7660;BME280;3872;47.902;8.162;2024-03-29T05:21:10;90222.78;;;6.87;82.93
7660;BME280;3872;47.902;8.162;2024-03-29T05:23:36;90235.88;;;7.33;75.23
7660;BME280;3872;47.902;8.162;2024-03-29T05:26:03;90243.25;;;6.59;83.31
7660;BME280;3872;47.902;8.162;2024-03-29T05:28:30;90236.19;;;7.32;76.42
7660;BME280;3872;47.902;8.162;2024-03-29T05:30:57;90228.34;;;6.51;83.88
7660;BME280;3872;47.902;8.162;2024-03-29T05:33:38;90231.44;;;6.44;85.61
7660;BME280;3872;47.902;8.162;2024-03-29T05:36:05;90221.78;;;7.17;79.60
7660;BME280;3872;47.902;8.162;2024-03-29T05:38:33;90226.47;;;7.32;76.18
7660;BME280;3872;47.902;8.162;2024-03-29T05:41:00;90216.41;;;7.14;79.06
7660;BME280;3872;47.902;8.162;2024-03-29T05:43:26;90213.69;;;6.84;82.29
7660;BME280;3872;47.902;8.162;2024-03-29T05:45:53;90205.88;;;6.76;82.74
7660;BME280;3872;47.902;8.162;2024-03-29T05:48:20;90193.09;;;6.83;83.07
7660;BME280;3872;47.902;8.162;2024-03-29T05:50:48;90196.25;;;6.24;92.83
7660;BME280;3872;47.902;8.162;2024-03-29T05:53:14;90185.19;;;7.08;88.08
7660;BME280;3872;47.902;8.162;2024-03-29T05:55:41;90192.31;;;7.67;77.71
7660;BME280;3872;47.902;8.162;2024-03-29T05:58:07;90188.88;;;7.45;83.09
7660;BME280;3872;47.902;8.162;2024-03-29T06:00:34;90183.31;;;7.47;79.94
7660;BME280;3872;47.902;8.162;2024-03-29T06:03:01;90165.53;;;7.32;80.62
7660;BME280;3872;47.902;8.162;2024-03-29T06:05:28;90160.84;;;7.17;85.45
7660;BME280;3872;47.902;8.162;2024-03-29T06:07:57;90161.34;;;7.39;82.42
7660;BME280;3872;47.902;8.162;2024-03-29T06:10:24;90157.09;;;8.06;75.94
7660;BME280;3872;47.902;8.162;2024-03-29T06:12:50;90127.56;;;8.59;72.13
7660;BME280;3872;47.902;8.162;2024-03-29T06:15:17;90126.88;;;8.29;75.12
7660;BME280;3872;47.902;8.162;2024-03-29T06:18:06;90109.53;;;8.70;71.84
7660;BME280;3872;47.902;8.162;2024-03-29T06:20:33;90114.41;;;8.26;75.21
7660;BME280;3872;47.902;8.162;2024-03-29T06:23:01;90138.31;;;8.45;73.30
7660;BME280;3872;47.902;8.162;2024-03-29T06:25:28;90174.03;;;7.58;80.64
7660;BME280;3872;47.902;8.162;2024-03-29T06:27:54;90185.66;;;7.69;83.63
7660;BME280;3872;47.902;8.162;2024-03-29T06:30:21;90179.41;;;7.62;83.31
7660;BME280;3872;47.902;8.162;2024-03-29T06:32:48;90169.94;;;8.61;70.96
7660;BME280;3872;47.902;8.162;2024-03-29T06:35:14;90161.78;;;9.32;63.58
7660;BME280;3872;47.902;8.162;2024-03-29T06:37:41;90183.78;;;9.52;63.20
7660;BME280;3872;47.902;8.162;2024-03-29T06:40:10;90197.44;;;9.21;69.21
7660;BME280;3872;47.902;8.162;2024-03-29T06:42:37;90208.84;;;9.61;67.33
7660;BME280;3872;47.902;8.162;2024-03-29T06:45:04;90190.88;;;7.78;83.82
7660;BME280;3872;47.902;8.162;2024-03-29T06:47:31;90199.28;;;8.54;76.26
7660;BME280;3872;47.902;8.162;2024-03-29T06:49:58;90200.34;;;9.07;72.05
7660;BME280;3872;47.902;8.162;2024-03-29T06:52:24;90192.31;;;9.36;71.87
7660;BME280;3872;47.902;8.162;2024-03-29T06:54:51;90203.81;;;10.05;66.40
7660;BME280;3872;47.902;8.162;2024-03-29T06:57:19;90214.97;;;10.02;66.33
7660;BME280;3872;47.902;8.162;2024-03-29T06:59:48;90211.63;;;10.53;63.53
7660;BME280;3872;47.902;8.162;2024-03-29T07:02:15;90225.38;;;9.62;68.11
7660;BME280;3872;47.902;8.162;2024-03-29T07:04:40;90190.66;;;10.05;66.58
7660;BME280;3872;47.902;8.162;2024-03-29T07:07:07;90202.31;;;9.10;73.83
7660;BME280;3872;47.902;8.162;2024-03-29T07:09:33;90213.03;;;9.17;76.81
7660;BME280;3872;47.902;8.162;2024-03-29T07:12:00;90211.03;;;10.20;70.20
7660;BME280;3872;47.902;8.162;2024-03-29T07:14:28;90205.66;;;10.69;67.82
7660;BME280;3872;47.902;8.162;2024-03-29T07:16:56;90201.31;;;10.60;68.54
7660;BME280;3872;47.902;8.162;2024-03-29T07:19:23;90210.16;;;10.96;65.26
7660;BME280;3872;47.902;8.162;2024-03-29T07:21:49;90199.78;;;10.87;64.76
7660;BME280;3872;47.902;8.162;2024-03-29T07:24:18;90211.81;;;10.20;70.82
7660;BME280;3872;47.902;8.162;2024-03-29T07:26:45;90208.19;;;10.13;71.80
7660;BME280;3872;47.902;8.162;2024-03-29T07:29:12;90214.16;;;10.50;72.87
7660;BME280;3872;47.902;8.162;2024-03-29T07:31:39;90204.41;;;11.06;68.67
7660;BME280;3872;47.902;8.162;2024-03-29T07:34:06;90212.00;;;10.80;73.49
7660;BME280;3872;47.902;8.162;2024-03-29T07:36:32;90226.03;;;9.95;78.78
7660;BME280;3872;47.902;8.162;2024-03-29T07:39:01;90227.66;;;9.51;84.16
7660;BME280;3872;47.902;8.162;2024-03-29T07:41:27;90233.69;;;9.88;83.68
7660;BME280;3872;47.902;8.162;2024-03-29T07:43:55;90238.19;;;11.04;73.61
7660;BME280;3872;47.902;8.162;2024-03-29T07:46:27;90255.34;;;10.98;74.12
7660;BME280;3872;47.902;8.162;2024-03-29T07:48:55;90245.44;;;11.07;72.82
7660;BME280;3872;47.902;8.162;2024-03-29T07:51:22;90262.41;;;10.82;75.54
7660;BME280;3872;47.902;8.162;2024-03-29T07:53:49;90273.84;;;9.64;86.86
7660;BME280;3872;47.902;8.162;2024-03-29T07:56:15;90257.63;;;10.99;77.43
7660;BME280;3872;47.902;8.162;2024-03-29T07:58:42;90285.94;;;10.50;79.13
7660;BME280;3872;47.902;8.162;2024-03-29T08:01:08;90256.81;;;10.83;78.66
7660;BME280;3872;47.902;8.162;2024-03-29T08:03:35;90289.44;;;9.94;87.36
7660;BME280;3872;47.902;8.162;2024-03-29T08:06:04;90281.50;;;10.67;82.84
7660;BME280;3872;47.902;8.162;2024-03-29T08:08:31;90300.69;;;9.82;90.09
7660;BME280;3872;47.902;8.162;2024-03-29T08:10:58;90294.94;;;10.25;93.21
7660;BME280;3872;47.902;8.162;2024-03-29T08:13:26;90323.91;;;9.47;96.79
7660;BME280;3872;47.902;8.162;2024-03-29T08:15:56;90307.25;;;10.85;87.00
7660;BME280;3872;47.902;8.162;2024-03-29T08:18:24;90307.22;;;11.25;82.81
7660;BME280;3872;47.902;8.162;2024-03-29T08:20:51;90285.16;;;11.73;79.86
7660;BME280;3872;47.902;8.162;2024-03-29T08:23:19;90314.97;;;10.17;93.36
7660;BME280;3872;47.902;8.162;2024-03-29T08:25:45;90301.34;;;11.60;81.10
7660;BME280;3872;47.902;8.162;2024-03-29T08:28:12;90291.06;;;12.14;76.03
7660;BME280;3872;47.902;8.162;2024-03-29T08:30:38;90293.25;;;11.81;80.85
7660;BME280;3872;47.902;8.162;2024-03-29T08:33:05;90267.84;;;11.88;80.64
7660;BME280;3872;47.902;8.162;2024-03-29T08:35:33;90261.28;;;11.82;84.72
7660;BME280;3872;47.902;8.162;2024-03-29T08:37:59;90261.22;;;12.10;81.21
7660;BME280;3872;47.902;8.162;2024-03-29T08:40:28;90264.88;;;12.05;79.11
7660;BME280;3872;47.902;8.162;2024-03-29T08:42:57;90267.06;;;11.72;84.64
7660;BME280;3872;47.902;8.162;2024-03-29T08:45:23;90245.53;;;11.70;86.36
7660;BME280;3872;47.902;8.162;2024-03-29T08:47:50;90230.59;;;11.90;85.34
7660;BME280;3872;47.902;8.162;2024-03-29T08:50:17;90228.97;;;12.16;83.20
7660;BME280;3872;47.902;8.162;2024-03-29T08:52:43;90209.19;;;12.07;84.67
7660;BME280;3872;47.902;8.162;2024-03-29T08:55:10;90199.91;;;12.86;78.48
7660;BME280;3872;47.902;8.162;2024-03-29T08:57:38;90211.91;;;14.06;69.43
7660;BME280;3872;47.902;8.162;2024-03-29T09:00:08;90217.81;;;13.54;71.75
7660;BME280;3872;47.902;8.162;2024-03-29T09:02:34;90214.69;;;14.40;66.75
7660;BME280;3872;47.902;8.162;2024-03-29T09:05:01;90202.81;;;14.57;65.61
7660;BME280;3872;47.902;8.162;2024-03-29T09:07:28;90219.91;;;14.63;65.37
7660;BME280;3872;47.902;8.162;2024-03-29T09:09:55;90209.78;;;14.68;61.12
7660;BME280;3872;47.902;8.162;2024-03-29T09:12:21;90220.53;;;14.53;64.57
7660;BME280;3872;47.902;8.162;2024-03-29T09:14:49;90236.03;;;14.05;67.97
7660;BME280;3872;47.902;8.162;2024-03-29T09:17:16;90234.22;;;13.21;72.58
7660;BME280;3872;47.902;8.162;2024-03-29T09:19:42;90234.81;;;13.15;79.78
7660;BME280;3872;47.902;8.162;2024-03-29T09:22:09;90248.13;;;13.03;82.21
7660;BME280;3872;47.902;8.162;2024-03-29T09:24:36;90239.44;;;12.83;77.30
7660;BME280;3872;47.902;8.162;2024-03-29T09:27:03;90229.69;;;14.59;67.66
7660;BME280;3872;47.902;8.162;2024-03-29T09:29:29;90231.69;;;14.95;63.99
7660;BME280;3872;47.902;8.162;2024-03-29T09:31:57;90216.66;;;15.06;61.00
7660;BME280;3872;47.902;8.162;2024-03-29T09:34:23;90236.75;;;13.56;65.74
7660;BME280;3872;47.902;8.162;2024-03-29T09:36:50;90234.38;;;14.69;64.86
7660;BME280;3872;47.902;8.162;2024-03-29T09:39:16;90243.53;;;15.05;61.59
7660;BME280;3872;47.902;8.162;2024-03-29T09:41:45;90238.03;;;15.20;59.75
7660;BME280;3872;47.902;8.162;2024-03-29T09:44:12;90249.19;;;13.37;65.20
7660;BME280;3872;47.902;8.162;2024-03-29T09:46:39;90243.47;;;14.22;63.96
7660;BME280;3872;47.902;8.162;2024-03-29T09:49:10;90237.09;;;15.69;60.04
7660;BME280;3872;47.902;8.162;2024-03-29T09:51:38;90226.94;;;16.70;55.27
7660;BME280;3872;47.902;8.162;2024-03-29T09:54:06;90223.03;;;17.15;52.97
7660;BME280;3872;47.902;8.162;2024-03-29T09:56:38;90215.34;;;16.96;51.50
7660;BME280;3872;47.902;8.162;2024-03-29T09:59:06;90214.00;;;16.61;52.93
7660;BME280;3872;47.902;8.162;2024-03-29T10:01:34;90212.81;;;16.59;49.55
7660;BME280;3872;47.902;8.162;2024-03-29T10:04:01;90207.53;;;17.42;48.68
7660;BME280;3872;47.902;8.162;2024-03-29T10:06:34;90204.66;;;17.93;47.78
7660;BME280;3872;47.902;8.162;2024-03-29T10:09:01;90201.88;;;17.40;48.05
7660;BME280;3872;47.902;8.162;2024-03-29T10:11:27;90200.84;;;18.86;44.82
7660;BME280;3872;47.902;8.162;2024-03-29T10:13:54;90195.09;;;18.98;43.81
7660;BME280;3872;47.902;8.162;2024-03-29T10:16:21;90198.81;;;19.33;41.99
7660;BME280;3872;47.902;8.162;2024-03-29T10:18:49;90190.91;;;19.04;41.91
7660;BME280;3872;47.902;8.162;2024-03-29T10:21:16;90189.75;;;19.16;40.49
7660;BME280;3872;47.902;8.162;2024-03-29T10:23:44;90187.94;;;18.77;43.39
7660;BME280;3872;47.902;8.162;2024-03-29T10:26:13;90182.16;;;19.04;42.25
7660;BME280;3872;47.902;8.162;2024-03-29T10:28:39;90179.88;;;18.99;42.37
7660;BME280;3872;47.902;8.162;2024-03-29T10:31:06;90182.25;;;18.58;44.65
7660;BME280;3872;47.902;8.162;2024-03-29T10:33:34;90188.44;;;19.60;40.78
7660;BME280;3872;47.902;8.162;2024-03-29T10:36:03;90180.47;;;19.49;42.41
7660;BME280;3872;47.902;8.162;2024-03-29T10:38:32;90179.44;;;20.02;38.80
7660;BME280;3872;47.902;8.162;2024-03-29T10:41:01;90176.28;;;19.51;39.35
7660;BME280;3872;47.902;8.162;2024-03-29T10:43:29;90185.59;;;19.91;38.75
7660;BME280;3872;47.902;8.162;2024-03-29T10:45:56;90181.84;;;19.78;41.31
7660;BME280;3872;47.902;8.162;2024-03-29T10:48:25;90175.28;;;19.93;41.72
7660;BME280;3872;47.902;8.162;2024-03-29T10:50:54;90174.47;;;19.97;40.21
7660;BME280;3872;47.902;8.162;2024-03-29T10:53:43;90164.44;;;20.66;40.53
7660;BME280;3872;47.902;8.162;2024-03-29T10:56:13;90175.28;;;19.93;41.43
7660;BME280;3872;47.902;8.162;2024-03-29T10:58:47;90171.06;;;20.92;39.42
7660;BME280;3872;47.902;8.162;2024-03-29T11:01:17;90173.88;;;21.16;38.46
7660;BME280;3872;47.902;8.162;2024-03-29T11:03:49;90173.19;;;21.08;37.96
7660;BME280;3872;47.902;8.162;2024-03-29T11:06:18;90184.41;;;21.64;37.87
7660;BME280;3872;47.902;8.162;2024-03-29T11:08:50;90182.69;;;22.34;36.65
7660;BME280;3872;47.902;8.162;2024-03-29T11:11:20;90180.53;;;23.38;35.23
7660;BME280;3872;47.902;8.162;2024-03-29T11:13:53;90172.59;;;23.55;33.95
7660;BME280;3872;47.902;8.162;2024-03-29T11:16:24;90177.91;;;22.45;36.13
7660;BME280;3872;47.902;8.162;2024-03-29T11:18:51;90168.44;;;23.90;33.04
7660;BME280;3872;47.902;8.162;2024-03-29T11:21:18;90165.69;;;24.94;30.09
7660;BME280;3872;47.902;8.162;2024-03-29T11:23:48;90163.47;;;25.05;27.70
7660;BME280;3872;47.902;8.162;2024-03-29T11:26:16;90170.84;;;22.58;28.09
7660;BME280;3872;47.902;8.162;2024-03-29T11:28:50;90164.31;;;23.85;27.78
7660;BME280;3872;47.902;8.162;2024-03-29T11:31:17;90183.50;;;23.24;29.67
7660;BME280;3872;47.902;8.162;2024-03-29T11:33:45;90201.75;;;23.33;29.69
7660;BME280;3872;47.902;8.162;2024-03-29T11:36:15;90180.97;;;22.71;30.40
7660;BME280;3872;47.902;8.162;2024-03-29T11:38:42;90159.00;;;21.75;32.40
7660;BME280;3872;47.902;8.162;2024-03-29T11:41:12;90147.81;;;22.38;32.84
7660;BME280;3872;47.902;8.162;2024-03-29T11:43:39;90125.66;;;22.57;35.27
7660;BME280;3872;47.902;8.162;2024-03-29T11:46:09;90121.47;;;22.09;37.32
7660;BME280;3872;47.902;8.162;2024-03-29T11:48:36;90121.25;;;22.23;36.50
7660;BME280;3872;47.902;8.162;2024-03-29T11:51:05;90125.03;;;23.55;34.99
7660;BME280;3872;47.902;8.162;2024-03-29T11:53:32;90126.75;;;23.26;33.99
7660;BME280;3872;47.902;8.162;2024-03-29T11:55:59;90137.50;;;24.82;30.67
7660;BME280;3872;47.902;8.162;2024-03-29T11:58:27;90138.06;;;21.70;29.27
7660;BME280;3872;47.902;8.162;2024-03-29T12:00:55;90131.06;;;24.64;27.36
7660;BME280;3872;47.902;8.162;2024-03-29T12:03:25;90137.09;;;24.84;26.36
7660;BME280;3872;47.902;8.162;2024-03-29T12:05:52;90125.13;;;25.30;26.27
7660;BME280;3872;47.902;8.162;2024-03-29T12:08:23;90132.81;;;25.73;26.26
7660;BME280;3872;47.902;8.162;2024-03-29T12:10:50;90139.22;;;25.92;25.03
7660;BME280;3872;47.902;8.162;2024-03-29T12:13:18;90146.50;;;23.16;25.87
7660;BME280;3872;47.902;8.162;2024-03-29T12:15:44;90142.88;;;25.85;23.76
7660;BME280;3872;47.902;8.162;2024-03-29T12:18:11;90156.19;;;25.34;25.07
7660;BME280;3872;47.902;8.162;2024-03-29T12:20:39;90160.03;;;26.17;22.81
7660;BME280;3872;47.902;8.162;2024-03-29T12:23:07;90164.13;;;22.70;25.59
7660;BME280;3872;47.902;8.162;2024-03-29T12:25:35;90151.66;;;24.22;25.21
7660;BME280;3872;47.902;8.162;2024-03-29T12:28:03;90150.31;;;23.58;25.02
7660;BME280;3872;47.902;8.162;2024-03-29T12:30:30;90140.19;;;24.82;23.30
7660;BME280;3872;47.902;8.162;2024-03-29T12:33:01;90151.78;;;23.19;23.93
7660;BME280;3872;47.902;8.162;2024-03-29T12:35:28;90158.19;;;24.69;23.92
7660;BME280;3872;47.902;8.162;2024-03-29T12:37:58;90147.94;;;27.32;22.47
7660;BME280;3872;47.902;8.162;2024-03-29T12:40:25;90152.66;;;23.92;25.07
7660;BME280;3872;47.902;8.162;2024-03-29T12:42:53;90143.69;;;25.41;23.53
7660;BME280;3872;47.902;8.162;2024-03-29T12:45:21;90157.19;;;24.79;23.29
7660;BME280;3872;47.902;8.162;2024-03-29T12:47:49;90160.44;;;25.03;24.39
7660;BME280;3872;47.902;8.162;2024-03-29T12:50:24;90153.38;;;26.21;23.24
7660;BME280;3872;47.902;8.162;2024-03-29T12:52:54;90161.44;;;23.56;26.01
7660;BME280;3872;47.902;8.162;2024-03-29T12:55:22;90155.28;;;24.11;25.59
7660;BME280;3872;47.902;8.162;2024-03-29T12:57:49;90150.97;;;24.99;24.48
7660;BME280;3872;47.902;8.162;2024-03-29T13:00:19;90151.38;;;23.21;26.06
7660;BME280;3872;47.902;8.162;2024-03-29T13:02:46;90149.31;;;24.56;24.82
7660;BME280;3872;47.902;8.162;2024-03-29T13:05:12;90144.59;;;24.44;24.44
7660;BME280;3872;47.902;8.162;2024-03-29T13:07:39;90138.31;;;23.62;25.93
7660;BME280;3872;47.902;8.162;2024-03-29T13:10:06;90138.53;;;23.88;26.43
7660;BME280;3872;47.902;8.162;2024-03-29T13:12:39;90136.53;;;25.21;24.32
7660;BME280;3872;47.902;8.162;2024-03-29T13:15:16;90134.75;;;24.70;24.32
7660;BME280;3872;47.902;8.162;2024-03-29T13:17:43;90134.72;;;25.02;24.19
7660;BME280;3872;47.902;8.162;2024-03-29T13:20:10;90137.81;;;23.87;25.10
7660;BME280;3872;47.902;8.162;2024-03-29T13:22:37;90133.84;;;24.44;24.84
7660;BME280;3872;47.902;8.162;2024-03-29T13:25:04;90133.81;;;25.92;23.47
7660;BME280;3872;47.902;8.162;2024-03-29T13:27:31;90132.66;;;26.05;23.28